Timeline UpdatesTrip UpdatesNews PostsPvt Posts♥♥Travel TipsAdmin PostsConv PostsFollowed PostsChat RequestsBlog PostsPNR Posts

Disclaimer
Search
 
 
Thu Oct 23, 2014 05:30:45 ISTHomeTrainsΣChainsAtlasPNRForumGalleryNewsFAQTripsMembersLoginFeedback
No Recent News for this Train
Other Trains in the News **new
Latest...
Discontinued from 1/9/14 #1193229
Thu Aug 21, 2014 (09:08PM)
⇐ Return Journey: Train# 13039

13040/Delhi-Howrah Janta Express (UnReserved)

TRAIN IS CANCELLED
Change Departure Station:
Change Arrival Station:
Post a Train Travel TipPost a Train Travel Tip **new
Post a Comment/Question/Picture/VideoPost a Comment/Question/Picture/Video
Inaugural Run
Tue Oct 01, 1946
Pantry/Catering
✕ NO Pantry Car
✕ NO Catering
RSA - Rake Sharing
Rake/Coach Composition
All coaches having Unreserved.
Loco
HWH WAP-4
News    PNR    Forum    Time-Table    Availability    Fare Chart    Map    Arr/Dep History    Trips    Gallery    ΣChains    X/O    Timeline    
Travel Time: 25h 52m    75 halts    Distance: 996 km    Avg Speed: 38 km/hr
Type: Mail/Express
Zone: ER/Eastern
Departs @ 15:35 (Avg 1h 36m late)
Platform# 10
SMTWTFS
Old Delhi Junction/DLI 
Arrives @ 17:27 +1 night (Avg 5h 45m late)
Platform# ???
SMTWTFS
Rajendra Nagar Bihar/RJPB 

75 halts. 160 intermediate Stations between Old Delhi Junction and Rajendra Nagar Bihar

Show ALL intermediate Stations  

#TrkCodeStation NameX/OArrivesAvgDepartsAvgHaltPFDay#KmSpeedElevZoneAddress
1/==/DLIOld Delhi Junction (16)»  -15:35+1:361010.029219mNRNear Chandni Chowk Metro Station, Delhi NCT
2/==/DSAShahdara Junction (4)  15:48+4:5815:50+4:582m216.352212mNRCircular Rd, Delhi NCT
3/==/SBBSahibabad Junction (5)  15:58-16:00-2m1113.245209mNRGhaziabad, Uttar Pradesh
4/==/GZBGhaziabad Junction (6)  16:09+3:1316:11+3:162m2119.946217mNRGhaziabad, Uttar Pradesh
5/==/MIUMaripat (2)  16:24+5:3716:25+5:491m--129.958213mNCRNational Highway 91, Uttar Pradesh
6/==/DERDadri (3)  16:32+5:5116:33+5:511m2136.769210mNCR203207, Uttar Pradesh
7/==/AJRAjaibpur (2)  16:41+5:5216:42+5:581m--145.862207mNCRGreater Noida, Uttar Pradesh
8/==/DKDEDankaur (3)  16:50+6:0316:51+6:051m--154.190209mNCRShyam Nagar Mandi, Uttar Pradesh
9/==/WAIRWair (2)  16:57+6:1116:58+6:121m1163.149203mNCRBulandshahr District, Uttar Pradesh
10/==/CHLChola (3)  17:04+6:1317:05+6:161m--168.089204mNCRTahsil Bulandshahar, Uttar Pradesh
11/==/SKQSikandarpur (2)  17:11+6:2017:12+6:201m--176.949199mNCRMDR 70W, Uttar Pradesh
12/==/KRJKhurja Junction (4)  17:19+4:4617:20+4:471m2182.648199mNCRBulandshahr, Uttar Pradesh
13/==/DARDanwar (2)  17:34+6:2017:35+6:331m--193.768198mNCRDanwar, Uttar Pradesh
14/==/SOMSomna (2)  17:44+6:3417:45+6:411m--1104.068195mNCRNational Highway 91, Uttar Pradesh
15/==/KLAKulwa (2)  17:54+6:4317:55+6:431m--1114.151190mNCRAligarh, Uttar Pradesh
16/==/ALJNAligarh Junction (4)  18:09+4:1818:10+4:201m21126.149192mNCRAligarh, Uttar Pradesh
17/==/MXKMandrak (2)  18:27+7:4218:28+7:501m--1139.988190mNCRNational Highway 93, Uttar Pradesh
18/==/SNSSasni (3)  18:33+5:5618:34+6:011m--1147.349185mNCRSasni, Uttar Pradesh
19/==/HRSHathras Junction (3)  18:45+8:0018:50+7:575m11156.271183mNCRMahamaya Nagar(05722-242803), Uttar Pradesh
20/==/JLSJalesar Road (1)  19:07+7:5819:08+8:201m11176.366172mNCRMDR 106W, Uttar Pradesh
21/==/BRNBarhan Junction  19:20+8:2719:21+8:271m--1189.57173mNCRJN Point-Tundle/Aligarh/Etah, Uttar Pradesh
22/--/TDLTundla Junction (5)  21:33+6:4421:43+6:4010m31204.266167mNCRDistt.Firozabad, Uttar Pradesh
23/==/FZDFirozabad (4)  21:58+6:4421:59+6:471m21220.721164mNCRFirozabad, Uttar Pradesh
24/==/SKBShikohabad Junction (4)  22:55+4:3923:00+4:415m21240.658166mNCRDistrict Firozabad, Uttar Pradesh
25/==/JGRJaswantnagar (2)  23:41+6:0723:42+6:081m--1280.025154mNCRJaswantnagar, Uttar Pradesh
26/==/ETWEtawah (5)  00:20+4:2000:25+4:215m32296.085154mNCRDistt. Etawah, Uttar Pradesh
27/==/BNTBharthana (3)  00:39+6:1300:40+6:151m--2315.969147mNCRBharthana, Uttar Pradesh
28/==/ULDAchalda (3)  00:57+6:1600:58+6:171m--2335.463147mNCRDist. Auraiya(05688-1072), Uttar Pradesh
29/==/PHDPhaphund (4)  01:14+6:1601:15+6:161m--2352.229146mNCRdist. Auraiya, Uttar Pradesh
30/==/JJKJhinjhak (3)  01:56+5:5101:57+5:521m22372.052140mNCRAuraiya, Uttar Pradesh
31/==/RURARura (4)  02:19+5:4702:20+5:481m--2391.033137mNCRJhinjhak, Uttar Pradesh
32/==/CNBKanpur Central (10)  03:40+3:2703:50+3:2610m42435.460128mNCRKANPUR-208 001, Uttar Pradesh
33/==/BKOBindki Road  04:36+5:5104:38+5:512m--2481.770124mNCRFatehpur, Uttar Pradesh
34/==/FTPFatehpur (3)  05:05+6:0205:10+6:095m--2513.083120mNCRFatehpur, Uttar Pradesh
35/==/KGAKhaga (3)  05:35+4:3905:40+4:375m--2547.774114mNCRFatehpur, Uttar Pradesh
36/==/SROSirathu (2)  06:00+5:1306:05+5:115m12572.574109mNCRSirathu, Uttar Pradesh
37/==/SJTShujaatpur  06:13+5:5406:18+5:495m--2582.377107mNCRNational Highway 2, Uttar Pradesh
38/==/BREBharwari  06:26+6:1506:28+6:222m--2592.657108mNCRBharwari, Uttar Pradesh
39/==/SYWNSaiyid Sarawan  06:44+6:4506:45+6:501m--2607.916106mNCR212203 ?, Uttar Pradesh
40/==/MREManauri  07:02+6:1607:03+6:161m--2612.558105mNCRSabderganj-Fatehpur Rd, Uttar Pradesh
41/==/SFGSubedarGanj (3)  07:17+6:4407:18+7:001m--2625.97100mNCRAllahabad, Uttar Pradesh
42/==/ALDAllahabad Junction (10)  07:50+5:4208:00+5:5010m62629.747100mNCRAllahabad 211003, Uttar Pradesh
43/==%NYNNaini Junction (4)  08:09+7:4708:11+7:472m12636.84998mNCRAllahabad, Uttar Pradesh
44/==/KCNKarchana  08:24+7:4908:25+7:491m--2647.47294mNCRKarchana, Uttar Pradesh
45/==/MJAMeja Road (4)  08:42+7:4908:43+7:571m--2667.83294mNCRDistrict Allahabad, Uttar Pradesh
46/==/UNDUnchdih  08:58+7:5508:59+7:561m--2675.94494mNCRUnchdih, Uttar Pradesh
47/==/MNFManda Road  09:10+7:5509:15+7:595m--2684.05693mNCRNH 76, Uttar Pradesh
48/==/JIAJigna (1)  09:24+8:0209:25+8:021m12692.35994mNCRNational Highway 76, Uttar Pradesh
49/==/GAEGaipura (4)  09:32+8:0609:33+8:261m--2699.26286mNCRGaipura, Uttar Pradesh
50/==/BDLVindhyachal (3)  09:45+8:3509:46+8:561m22711.51988mNCRMirzapur, Uttar Pradesh
51/==/MZPMirzapur (3)  10:09+7:0310:10+7:121m--2718.94788mNCRMirzapur, Uttar Pradesh
52/==/CARChunar Junction (5)  10:50+8:3210:55+8:285m22750.15785mNCRChunar Junction, Uttar Pradesh
53/--/KYTKailahat (4)  11:05+8:3011:06+8:311m--2759.63283mNCRKailahat, Uttar Pradesh
54/==/ARWAhraura Road (4)  11:22+8:2611:23+9:171m--2768.12285mNCRDist. Mirzapur - 231305, Uttar Pradesh
55/==/MGSMughal Sarai Junction (8)  12:00+5:2112:15+4:1315m22781.95083mECRDistt: Chandauli Pin 232101, Uttar Pradesh
56/==/SLDSakaldiha (2)  12:37-12:38-1m--2800.18281mECRState Highway 69, Uttar Pradesh
57/==/ZNAZamania (2)  12:57+3:5812:58+3:581m--2826.15877mECRGhazipur, Uttar Pradesh
58/==/DLNDildarnagar Junction (2)  13:12+1113:14+112m--2839.67972mECRDildarnagar, Uttar Pradesh
59/==/BWHBhadaura (2)  13:20-13:21-1m--2847.55569mECRGhazipur, Uttar Pradesh
60/==/GMRGahmar (2)  13:30-13:31-1m--2855.66968mECRDistt: Ghazipur, Uttar Pradesh
61/==/CSAChausa (2)  13:39-13:40-1m--2864.96668mECRState Highway 14, Bihar
62/==/BXRBuxar (3)  13:50+4:2813:55+4:285m--2875.88267mECRBuxar, Bihar
63/==/DUREDumraon (3)  14:07+4:2614:08+4:261m--2892.15170mECRDumraon, Bihar
64/==/TWGTwining Ganj  14:17-14:18-1m--2899.77270mECRArrah Buxar Rd, Bihar
65/==/RPRRaghunathpur (4)  14:25+5:0214:26+5:021m--2908.15969mECRRaghunathpur, Bihar
66/==/BYNBanahi (2)  14:35-14:36-1m--2917.04467mECRBanahi, Bihar
67/==/BEABihiya (3)  14:44-14:45-1m--2922.96367mECRBehea, Bihar
68/==/KRSKarisath (2)  14:56-14:57-1m--2934.42065mECRKarisath, Bihar
69/==/ARAAra Junction (3)  15:27+6:5215:29+6:522m--2944.39963mECRDistt: Bhojpur Ph 06182-233411, Bihar
70/==/KUAKulharia (2)  15:35-15:36-1m--2954.23661mECRChandi Sahar Rd, Bihar
71/==/KWRKoelwar (2)  15:42-15:43-1m--2957.84865mECRNational Highway 30, Bihar
72/==/BTABihta (2)  15:54+6:0915:55+6:091m--2966.53662mECRDistt: Patna, Bihar
73/==/SDESadisopur (2)  16:02-16:03-1m--2970.75364mECRSadisopur, Bihar
74/==/NEONeora (2)  16:11-16:12-1m--2977.82061mECRNational Highway 98, Bihar
75/==/DNRDanapur (5)  16:30-16:40-10m--2983.81958mECRKhagaul, Bihar
76/==/PNBEPatna Junction (10)  17:10+6:5017:20+6:4910m--2993.22257mECRPatna 800001, Bihar
77/==/RJPBRajendra Nagar Bihar (4)•  17:27+5:4517:29+5:452m--2995.85155mECRPatna 800001, Bihar
78/==/GZHGulzarbagh (3)  17:34-17:36-2m--21000.12655mECRPatna, Bihar
79/==/PNCPatna Saheb (3)  17:43+6:1417:45+6:142m--21003.14659mECRPatna 800008, Bihar
80/==/BKGBanka Ghat (2)  17:53-17:54-1m--21009.26156mECRPatna, Bihar
81/==/FUTFatwa (6)  18:00+6:4218:01+6:421m--21015.35653mECRPatna, Bihar
82/==/KOOKhusropur (2)  18:10-18:11-1m--21023.85052mECRPatna, Bihar
83/==/KWOKarauta (2)  18:18-18:19-1m--21029.63652mECRKarauta, Bihar
84/==/SMBHSalim Pur Bihar  18:23-18:24-1m--21032.03254mECRSalim Pur, Bihar
85/==/TKBGTeka Bigha Halt  18:28-18:29-1m--21034.21751mECRTeka Bigha, Bihar
86/==/BKPBakhtiyarpur Junction (5)18:45+4:3619:05+4:3620m--21038.67751mECRPatna, Bihar
87/==/ATLAthmal Gola (2)  19:12-19:13-1m--21047.66852mECRPatna, Bihar
88/==/BARHBarh (3)  19:21-19:22-1m--21056.76849mECRBarh, Bihar
89/==/PHKPunarakh (2)  19:31-19:33-2m--21066.93251mECRPunarakh, Bihar
90/==/MMKBMemrakhabad (2)  19:38-19:39-1m--21069.63449mECRMor, Bihar
91/==/KNHPKanhaipur (2)  19:43-19:44-1m--21071.93947mECRMor, Bihar
92/==/MORMor (2)  19:49-19:50-1m--21075.14946mECRMor, Bihar
93/==/MKAMokama Junction (4)  19:59-20:01-2m--21082.54648mECRPatna, Bihar
94/--/ANAHAunta Halt  20:06-20:07-1m--21086.35444mECRPanchmahla, Bihar
95/==/HTZHathidah Junction (2)  20:12-20:13-1m121090.81850mECRMusahari, Bihar
96/==/RDUMRampur Dumra (3)  20:26-20:27-1m--21094.63346mECRNational Highway 80, Bihar
97/==/BRYABarhiya (3)  20:37-20:38-1m--21100.25147mECRBarahiya, Bihar
98/==/DMRXDumri Halt (1)  20:43-20:44-1m121104.53949mECRNational Highway 80, Bihar
99/==/MKBMankatha  20:52-20:53-1m--21109.75647mECRNational Highway 80, Bihar
100/==/LKRLuckeesarai Junction (2)  20:59+7:2621:00+7:261m--21115.3852mECRLakhisarai, Bihar
101/==/KIULKiul Junction (5)  21:10+9:5221:12+9:522m--21116.73353mECRDist. Lakhisarai, Bihar
102/==/BSQPBansipur (2)  21:20-21:21-1m--21121.02253mECRKiul, Bihar
103/==/MNPMananpur (2)  21:28-21:29-1m--21123.66257mECRState Highway 18, Bihar
104/==/BFMBhalui (2)  21:35-21:36-1m--21129.810663mECRState Highway 18, Bihar
105/==/JMUJamui (2)  21:44-21:45-1m--21143.94681mECRState Highway 72, Bihar
106/==/GHRGidhaur (2)  22:04-22:05-1m--21158.534106mECRState Highway 18, Bihar
107/==/JAJJhajha (4)  22:25+5:5922:33+5:598m--21169.966143mECRJhajha, Bihar
108/==/STLSimultala (2)  22:50-22:51-1m--21188.666247mERSimultala, Bihar
109/==/JSMEJasidih Junction (5)  23:14+8:1023:19+8:105m--21214.070271mERJasidih, Jharkhand
110/==/MDPMadhupur Junction (4)  23:44-23:52-8m--21243.185254mER06432-224478, Jharkhand
111/==/CRJChittaranjan (3)  00:32-00:33-1m231299.543182mERMihijam, Jharkhand
112/==/ASNAsansol Junction (7)  01:08+8:2001:18+8:1510m--31324.668113mERDist - Bardhaman, West Bengal
113/==/RNGRaniGanj (4)  01:34-01:35-1m--31342.73492mERRaniganj, West Bengal
114/==/UDLAndal Junction (6)  01:48+9:5501:50+9:552m--31350.07386mERAndal, West Bengal
115/==/DGRDurgapur (5)  02:04+7:3302:08+7:334m--31367.05571mERDurgapur, West Bengal
116/==/BWNBarddhaman Junction (8)  03:17+8:5303:27+8:5310m--31430.65434mERDist - Barddhaman, West Bengal
117/==/BDCBandel Junction (7)  04:42+9:3204:47+9:325m--31497.85114mERdist - HOOGHLY, West Bengal
118/==/CGRChandan Nagar (3)  04:55-04:56-1m--31504.64716mERDist -HOOGHLY - 712136, West Bengal
119/==/SRPSerampore (4)  05:13-05:14-1m--31517.82311mERdist - hooghly, West Bengal
120/==/HWHKolkata Howrah Junction (23)  06:05+8:09-731537.3-10mERHowrah 711101, West Bengal
Scroll to Top
Scroll to Bottom